createdAt,value
2024-02-09T00:00:09.585Z,11.73
2024-02-09T00:02:36.505Z,14.70
2024-02-09T00:05:04.049Z,12.67
2024-02-09T00:07:30.967Z,10.50
2024-02-09T00:09:57.855Z,15.67
2024-02-09T00:12:25.394Z,12.30
2024-02-09T00:14:52.402Z,11.03
2024-02-09T00:17:19.235Z,12.40
2024-02-09T00:19:48.240Z,11.30
2024-02-09T00:22:15.261Z,12.63
2024-02-09T00:24:45.123Z,9.57
2024-02-09T00:27:12.787Z,13.50
2024-02-09T00:29:39.652Z,10.40
2024-02-09T00:32:06.768Z,11.13
2024-02-09T00:34:35.728Z,10.27
2024-02-09T00:37:03.105Z,11.37
2024-02-09T00:39:34.664Z,11.70
2024-02-09T00:42:03.258Z,13.20
2024-02-09T00:44:30.344Z,13.40
2024-02-09T00:46:57.557Z,15.27
2024-02-09T00:49:25.277Z,10.50
2024-02-09T00:51:53.426Z,11.07
2024-02-09T00:54:22.729Z,11.23
2024-02-09T00:56:49.885Z,14.33
2024-02-09T00:59:20.001Z,10.10
2024-02-09T01:01:54.371Z,9.53
2024-02-09T01:04:28.928Z,10.60
2024-02-09T01:06:56.684Z,11.53
2024-02-09T01:09:26.745Z,14.70
2024-02-09T01:11:53.569Z,15.07
2024-02-09T01:14:38.828Z,12.10
2024-02-09T01:17:24.287Z,13.40
2024-02-09T01:20:09.876Z,11.93
2024-02-09T01:22:55.411Z,14.93
2024-02-09T01:25:40.929Z,15.37
2024-02-09T01:28:26.238Z,16.13
2024-02-09T01:31:11.477Z,12.10
2024-02-09T01:33:57.233Z,14.30
2024-02-09T01:36:42.746Z,14.73
2024-02-09T01:39:28.381Z,14.20
2024-02-09T01:42:13.924Z,13.87
2024-02-09T01:44:59.499Z,11.10
2024-02-09T01:47:45.160Z,12.43
2024-02-09T01:50:31.793Z,11.93
2024-02-09T01:53:18.045Z,14.90
2024-02-09T01:56:03.997Z,15.37
2024-02-09T01:58:49.765Z,14.57
2024-02-09T02:01:35.308Z,12.30
2024-02-09T02:04:21.264Z,14.97
2024-02-09T02:07:07.057Z,13.60
2024-02-09T02:09:52.761Z,12.27
2024-02-09T02:12:37.895Z,14.10
2024-02-09T02:15:23.866Z,14.90
2024-02-09T02:18:09.285Z,11.83
2024-02-09T02:20:54.775Z,11.07
2024-02-09T02:23:45.970Z,12.33
2024-02-09T02:26:31.602Z,10.20
2024-02-09T02:29:17.133Z,9.07
2024-02-09T02:32:02.593Z,11.40
2024-02-09T02:34:48.117Z,11.07
2024-02-09T02:37:33.362Z,9.97
2024-02-09T02:40:18.797Z,7.93
2024-02-09T02:42:45.543Z,10.47
2024-02-09T02:45:13.754Z,7.23
2024-02-09T02:47:41.781Z,7.30
2024-02-09T02:50:28.196Z,7.57
2024-02-09T02:53:13.446Z,6.70
2024-02-09T02:55:59.099Z,5.57
2024-02-09T02:58:44.676Z,6.97
2024-02-09T03:01:31.176Z,9.40
2024-02-09T03:04:16.544Z,7.53
2024-02-09T03:07:03.401Z,9.10
2024-02-09T03:09:30.652Z,8.10
2024-02-09T03:12:01.025Z,7.30
2024-02-09T03:14:29.196Z,8.43
2024-02-09T03:16:58.882Z,9.23
2024-02-09T03:19:25.862Z,9.07
2024-02-09T03:21:55.314Z,10.53
2024-02-09T03:24:22.499Z,9.73
2024-02-09T03:26:49.353Z,8.50
2024-02-09T03:29:16.149Z,9.17
2024-02-09T03:31:43.906Z,7.80
2024-02-09T03:34:11.088Z,7.97
2024-02-09T03:36:38.173Z,7.47
2024-02-09T03:39:07.048Z,7.90
2024-02-09T03:41:33.995Z,8.50
2024-02-09T03:44:06.011Z,7.90
2024-02-09T03:46:34.115Z,6.83
2024-02-09T03:49:01.128Z,8.90
2024-02-09T03:51:28.222Z,10.07
2024-02-09T03:53:55.048Z,6.80
2024-02-09T03:56:21.857Z,7.70
2024-02-09T03:58:48.653Z,7.90
2024-02-09T04:01:16.467Z,6.70
2024-02-09T04:03:43.739Z,7.53
2024-02-09T04:06:10.843Z,7.37
2024-02-09T04:08:37.724Z,6.70
2024-02-09T04:11:04.700Z,7.20
2024-02-09T04:13:31.841Z,7.40
2024-02-09T04:16:01.887Z,6.77
2024-02-09T04:18:30.606Z,5.80
2024-02-09T04:20:57.896Z,10.03
2024-02-09T04:23:24.838Z,9.20
2024-02-09T04:25:51.691Z,8.30
2024-02-09T04:28:19.388Z,6.17
2024-02-09T04:30:48.089Z,7.27
2024-02-09T04:33:17.143Z,5.20
2024-02-09T04:35:44.657Z,10.23
2024-02-09T04:38:11.803Z,9.20
2024-02-09T04:40:38.695Z,7.57
2024-02-09T04:43:06.877Z,8.80
2024-02-09T04:45:33.919Z,6.10
2024-02-09T04:48:00.850Z,7.00
2024-02-09T04:50:27.781Z,7.90
2024-02-09T04:52:55.833Z,6.30
2024-02-09T04:55:23.090Z,5.33
2024-02-09T04:57:49.964Z,6.57
2024-02-09T05:00:17.613Z,7.50
2024-02-09T05:02:48.212Z,4.50
2024-02-09T05:05:15.753Z,8.33
2024-02-09T05:07:42.971Z,7.30
2024-02-09T05:10:10.382Z,6.43
2024-02-09T05:12:37.193Z,5.83
2024-02-09T05:15:04.323Z,8.20
2024-02-09T05:17:31.174Z,6.40
2024-02-09T05:20:02.527Z,7.43
2024-02-09T05:22:30.143Z,5.77
2024-02-09T05:24:57.410Z,9.17
2024-02-09T05:27:24.316Z,5.17
2024-02-09T05:29:51.358Z,5.10
2024-02-09T05:32:18.225Z,5.07
2024-02-09T05:34:46.058Z,6.40
2024-02-09T05:37:14.489Z,6.30
2024-02-09T05:39:46.277Z,3.83
2024-02-09T05:42:13.190Z,7.30
2024-02-09T05:44:40.244Z,4.17
2024-02-09T05:47:07.112Z,3.23
2024-02-09T05:49:34.177Z,4.17
2024-02-09T05:52:01.308Z,2.70
2024-02-09T05:54:28.279Z,4.53
2024-02-09T05:56:55.055Z,3.13
2024-02-09T05:59:24.777Z,3.03
2024-02-09T06:01:51.976Z,2.80
2024-02-09T06:04:18.990Z,2.93
2024-02-09T06:06:46.871Z,2.87
2024-02-09T06:09:13.858Z,2.70
2024-02-09T06:11:40.825Z,2.43
2024-02-09T06:14:10.585Z,2.63
2024-02-09T06:16:37.855Z,3.20
2024-02-09T06:19:04.853Z,2.10
2024-02-09T06:21:32.805Z,2.17
2024-02-09T06:23:59.743Z,3.27
2024-02-09T06:26:26.704Z,2.80
2024-02-09T06:28:54.375Z,2.23
2024-02-09T06:31:28.233Z,2.27
2024-02-09T06:33:58.108Z,2.00
2024-02-09T06:36:26.577Z,2.90
2024-02-09T06:38:55.191Z,2.57
2024-02-09T06:41:22.371Z,2.40
2024-02-09T06:43:49.664Z,2.83
2024-02-09T06:46:20.744Z,2.67
2024-02-09T06:48:49.981Z,2.77
2024-02-09T06:51:21.736Z,1.87
2024-02-09T06:53:49.343Z,2.30
2024-02-09T06:56:16.618Z,2.50
2024-02-09T06:58:47.125Z,2.30
2024-02-09T07:01:14.699Z,2.03
2024-02-09T07:03:42.339Z,5.37
2024-02-09T07:06:09.889Z,3.17
2024-02-09T07:08:45.126Z,3.60
2024-02-09T07:11:14.257Z,4.10
2024-02-09T07:13:45.507Z,2.23
2024-02-09T07:16:12.661Z,3.07
2024-02-09T07:18:42.142Z,2.87
2024-02-09T07:21:11.332Z,3.23
2024-02-09T07:23:38.596Z,3.33
2024-02-09T07:26:09.821Z,2.17
2024-02-09T07:28:42.690Z,2.27
2024-02-09T07:31:10.998Z,2.20
2024-02-09T07:33:38.543Z,2.77
2024-02-09T07:36:08.214Z,2.57
2024-02-09T07:38:36.028Z,2.30
2024-02-09T07:41:03.158Z,4.20
2024-02-09T07:43:29.868Z,2.20
2024-02-09T07:45:56.789Z,2.90
2024-02-09T07:48:23.676Z,5.50
2024-02-09T07:50:53.844Z,3.13
2024-02-09T07:53:20.679Z,2.93
2024-02-09T07:55:47.619Z,2.83
2024-02-09T07:58:16.542Z,2.90
2024-02-09T08:00:43.857Z,2.60
2024-02-09T08:03:12.208Z,2.20
2024-02-09T08:05:39.547Z,2.30
2024-02-09T08:08:06.953Z,3.97
2024-02-09T08:10:33.829Z,3.50
2024-02-09T08:13:00.666Z,4.17
2024-02-09T08:15:27.416Z,2.50
2024-02-09T08:17:54.667Z,3.20
2024-02-09T08:20:21.780Z,2.53
2024-02-09T08:22:49.242Z,2.30
2024-02-09T08:25:16.810Z,2.50
2024-02-09T08:27:43.835Z,3.40
2024-02-09T08:30:11.275Z,2.97
2024-02-09T08:32:40.277Z,3.70
2024-02-09T08:35:08.061Z,4.30
2024-02-09T08:37:36.513Z,3.10
2024-02-09T08:40:03.750Z,2.93
2024-02-09T08:42:30.676Z,2.80
2024-02-09T08:44:58.843Z,2.70
2024-02-09T08:47:26.221Z,4.47
2024-02-09T08:49:53.210Z,3.37
2024-02-09T08:52:20.184Z,2.23
2024-02-09T08:54:47.441Z,3.10
2024-02-09T08:57:19.727Z,3.50
2024-02-09T08:59:46.627Z,2.50
2024-02-09T09:02:13.514Z,3.07
2024-02-09T09:04:40.817Z,4.00
2024-02-09T09:07:07.837Z,4.90
2024-02-09T09:09:35.647Z,2.80
2024-02-09T09:12:07.835Z,3.90
2024-02-09T09:14:38.197Z,2.50
2024-02-09T09:17:13.014Z,4.07
2024-02-09T09:19:48.396Z,3.87
2024-02-09T09:22:15.621Z,5.13
2024-02-09T09:24:42.633Z,4.57
2024-02-09T09:27:09.753Z,2.87
2024-02-09T09:29:36.948Z,2.87
2024-02-09T09:32:04.066Z,3.83
2024-02-09T09:34:32.315Z,2.93
2024-02-09T09:36:59.684Z,2.70
2024-02-09T09:39:28.320Z,2.80
2024-02-09T09:41:57.808Z,3.03
2024-02-09T09:44:28.573Z,3.63
2024-02-09T09:46:58.144Z,3.93
2024-02-09T09:49:28.225Z,3.93
2024-02-09T09:52:00.281Z,5.23
2024-02-09T09:54:30.666Z,3.40
2024-02-09T09:57:00.363Z,3.63
2024-02-09T09:59:27.700Z,4.90
2024-02-09T10:01:56.010Z,5.17
2024-02-09T10:04:23.104Z,2.90
2024-02-09T10:06:50.528Z,4.07
2024-02-09T10:09:17.797Z,3.10
2024-02-09T10:11:46.684Z,4.50
2024-02-09T10:14:15.711Z,4.57
2024-02-09T10:16:45.312Z,3.80
2024-02-09T10:19:15.706Z,5.30
2024-02-09T10:21:50.913Z,3.00
2024-02-09T10:24:24.050Z,3.77
2024-02-09T10:26:51.266Z,2.30
2024-02-09T10:29:22.753Z,3.83
2024-02-09T10:31:51.072Z,2.67
2024-02-09T10:34:18.139Z,3.93
2024-02-09T10:36:45.269Z,3.47
2024-02-09T10:39:12.263Z,5.53
2024-02-09T10:41:40.815Z,4.37
2024-02-09T10:44:10.319Z,2.47
2024-02-09T10:46:40.211Z,4.17
2024-02-09T10:49:10.396Z,2.70
2024-02-09T10:51:40.227Z,7.13
2024-02-09T10:54:17.699Z,4.33
2024-02-09T10:56:44.810Z,3.70
2024-02-09T10:59:14.700Z,5.40
2024-02-09T11:01:41.750Z,4.17
2024-02-09T11:04:08.875Z,3.13
2024-02-09T11:06:37.072Z,3.40
2024-02-09T11:09:04.896Z,4.37
2024-02-09T11:11:35.524Z,4.10
2024-02-09T11:14:38.035Z,3.23
2024-02-09T11:17:08.376Z,2.80
2024-02-09T11:19:39.806Z,3.43
2024-02-09T11:22:08.473Z,2.40
2024-02-09T11:24:35.580Z,2.70
2024-02-09T11:27:04.136Z,2.87
2024-02-09T11:29:33.767Z,4.30
2024-02-09T11:32:06.592Z,5.77
2024-02-09T11:34:37.787Z,3.70
2024-02-09T11:37:05.076Z,3.43
2024-02-09T11:39:33.605Z,5.70
2024-02-09T11:42:01.393Z,3.97
2024-02-09T11:44:29.221Z,4.90
2024-02-09T11:46:58.078Z,4.50
2024-02-09T11:49:25.517Z,4.97
2024-02-09T11:52:00.497Z,2.53
2024-02-09T11:54:27.276Z,2.50
2024-02-09T11:56:57.411Z,4.37
2024-02-09T11:59:24.745Z,5.03
2024-02-09T12:01:54.727Z,2.77
2024-02-09T12:04:22.750Z,3.80
2024-02-09T12:06:50.357Z,2.93
2024-02-09T12:09:17.290Z,4.10
2024-02-09T12:11:48.582Z,5.37
2024-02-09T12:14:15.500Z,3.57
2024-02-09T12:16:42.397Z,4.07
2024-02-09T12:19:09.509Z,2.30
2024-02-09T12:21:36.521Z,3.27
2024-02-09T12:24:05.134Z,3.87
2024-02-09T12:26:33.828Z,3.20
2024-02-09T12:29:13.806Z,4.47
2024-02-09T12:31:44.966Z,3.03
2024-02-09T12:34:12.211Z,3.10
2024-02-09T12:36:39.445Z,2.27
2024-02-09T12:39:08.299Z,2.93
2024-02-09T12:41:40.615Z,4.53
2024-02-09T12:44:08.143Z,4.17
2024-02-09T12:46:36.036Z,4.10
2024-02-09T12:49:03.165Z,3.27
2024-02-09T12:51:34.449Z,3.27
2024-02-09T12:54:03.590Z,3.70
2024-02-09T12:56:31.072Z,3.40
2024-02-09T12:58:57.957Z,3.57
2024-02-09T13:01:24.980Z,3.03
2024-02-09T13:03:51.958Z,3.90
2024-02-09T13:06:18.869Z,2.90
2024-02-09T13:08:45.775Z,4.17
2024-02-09T13:11:12.620Z,3.30
2024-02-09T13:13:41.276Z,2.90
2024-02-09T13:16:13.544Z,5.50
2024-02-09T13:18:40.556Z,3.03
2024-02-09T13:21:07.516Z,3.50
2024-02-09T13:23:35.926Z,2.63
2024-02-09T13:26:03.827Z,2.83
2024-02-09T13:28:32.184Z,3.80
2024-02-09T13:31:00.195Z,3.10
2024-02-09T13:33:27.296Z,2.90
2024-02-09T13:35:55.776Z,3.83
2024-02-09T13:38:24.015Z,4.70
2024-02-09T13:40:51.432Z,4.20
2024-02-09T13:43:18.522Z,4.77
2024-02-09T13:45:46.982Z,4.10
2024-02-09T13:48:14.059Z,4.40
2024-02-09T13:50:41.270Z,3.97
2024-02-09T13:53:08.134Z,3.93
2024-02-09T13:55:36.718Z,4.73
2024-02-09T13:58:03.706Z,4.20
2024-02-09T14:00:31.011Z,4.20
2024-02-09T14:02:57.796Z,4.63
2024-02-09T14:05:25.029Z,3.80
2024-02-09T14:07:52.573Z,3.83
2024-02-09T14:10:20.519Z,4.07
2024-02-09T14:12:48.809Z,5.10
2024-02-09T14:15:15.972Z,5.10
2024-02-09T14:17:43.046Z,5.50
2024-02-09T14:20:10.884Z,7.50
2024-02-09T14:22:37.882Z,4.40
2024-02-09T14:25:05.332Z,4.03
2024-02-09T14:27:33.260Z,4.00
2024-02-09T14:30:00.780Z,4.57
2024-02-09T14:32:27.958Z,3.60
2024-02-09T14:34:54.958Z,4.20
2024-02-09T14:37:22.984Z,3.80
2024-02-09T14:39:50.183Z,4.50
2024-02-09T14:42:17.060Z,4.60
2024-02-09T14:44:50.363Z,4.30
2024-02-09T14:47:18.018Z,4.20
2024-02-09T14:49:49.693Z,5.37
2024-02-09T14:52:18.364Z,3.27
2024-02-09T14:54:46.025Z,3.37
2024-02-09T14:57:14.396Z,3.77
2024-02-09T14:59:41.337Z,3.43
2024-02-09T15:02:12.127Z,2.90
2024-02-09T15:04:44.388Z,4.57
2024-02-09T15:07:12.759Z,4.33
2024-02-09T15:09:41.702Z,4.00
2024-02-09T15:12:08.899Z,4.03
2024-02-09T15:14:38.630Z,4.20
2024-02-09T15:17:07.336Z,3.90
2024-02-09T15:19:35.674Z,5.50
2024-02-09T15:22:02.993Z,4.70
2024-02-09T15:24:30.016Z,4.43
2024-02-09T15:26:56.837Z,4.30
2024-02-09T15:29:26.100Z,3.43
2024-02-09T15:31:55.384Z,6.70
2024-02-09T15:34:23.969Z,4.37
2024-02-09T15:36:51.388Z,8.23
2024-02-09T15:39:18.324Z,6.23
2024-02-09T15:41:45.478Z,7.43
2024-02-09T15:44:13.060Z,4.17
2024-02-09T15:46:40.364Z,4.80
2024-02-09T15:49:07.486Z,4.53
2024-02-09T15:51:36.536Z,8.87
2024-02-09T15:54:06.065Z,5.13
2024-02-09T15:56:33.892Z,5.03
2024-02-09T15:59:01.883Z,6.33
2024-02-09T16:01:40.204Z,5.20
2024-02-09T16:04:08.091Z,4.27
2024-02-09T16:06:35.863Z,5.57
2024-02-09T16:09:02.976Z,4.67
2024-02-09T16:11:34.162Z,5.07
2024-02-09T16:14:04.793Z,5.73
2024-02-09T16:16:32.394Z,5.73
2024-02-09T16:19:02.551Z,8.30
2024-02-09T16:21:33.765Z,4.63
2024-02-09T16:24:02.964Z,5.03
2024-02-09T16:26:29.936Z,6.73
2024-02-09T16:28:57.969Z,8.50
2024-02-09T16:31:25.539Z,6.10
2024-02-09T16:33:53.141Z,5.57
2024-02-09T16:36:23.417Z,6.17
2024-02-09T16:38:53.427Z,5.67
2024-02-09T16:41:20.601Z,6.00
2024-02-09T16:43:47.750Z,6.20
2024-02-09T16:46:15.440Z,4.70
2024-02-09T16:48:43.455Z,5.57
2024-02-09T16:51:12.082Z,5.07
2024-02-09T16:53:38.983Z,6.70
2024-02-09T16:56:06.268Z,6.20
2024-02-09T16:58:33.204Z,5.80
2024-02-09T17:01:00.755Z,6.77
2024-02-09T17:03:29.198Z,5.27
2024-02-09T17:05:56.300Z,5.80
2024-02-09T17:08:23.194Z,4.20
2024-02-09T17:10:50.221Z,6.20
2024-02-09T17:13:17.051Z,5.10
2024-02-09T17:15:43.896Z,6.47
2024-02-09T17:18:10.869Z,5.40
2024-02-09T17:20:39.239Z,6.83
2024-02-09T17:23:06.844Z,6.40
2024-02-09T17:25:34.359Z,6.27
2024-02-09T17:28:01.401Z,7.10
2024-02-09T17:30:28.984Z,6.50
2024-02-09T17:32:56.264Z,6.50
2024-02-09T17:35:23.342Z,5.80
2024-02-09T17:37:51.287Z,5.40
2024-02-09T17:40:20.518Z,7.40
2024-02-09T17:42:50.333Z,7.20
2024-02-09T17:45:17.397Z,4.20
2024-02-09T17:47:46.584Z,4.70
2024-02-09T17:50:17.043Z,5.87
2024-02-09T17:52:44.387Z,5.40
2024-02-09T17:55:12.876Z,6.40
2024-02-09T17:57:39.769Z,5.23
2024-02-09T18:00:07.845Z,5.90
2024-02-09T18:02:35.008Z,6.67
2024-02-09T18:05:02.356Z,5.00
2024-02-09T18:07:29.487Z,6.47
2024-02-09T18:09:56.941Z,5.53
2024-02-09T18:12:24.060Z,6.57
2024-02-09T18:14:51.514Z,7.40
2024-02-09T18:17:19.925Z,7.37
2024-02-09T18:19:47.264Z,5.90
2024-02-09T18:22:17.331Z,7.33
2024-02-09T18:24:48.404Z,6.40
2024-02-09T18:27:16.205Z,6.67
2024-02-09T18:29:42.977Z,6.00
2024-02-09T18:32:09.907Z,6.17
2024-02-09T18:34:37.419Z,5.77
2024-02-09T18:37:05.173Z,6.73
2024-02-09T18:39:32.008Z,7.10
2024-02-09T18:41:59.841Z,6.03
2024-02-09T18:44:29.529Z,7.23
2024-02-09T18:46:57.191Z,10.67
2024-02-09T18:49:27.221Z,10.33
2024-02-09T18:51:55.282Z,8.70
2024-02-09T18:54:23.227Z,10.20
2024-02-09T18:56:50.316Z,7.60
2024-02-09T18:59:17.926Z,8.20
2024-02-09T19:01:45.852Z,6.00
2024-02-09T19:04:14.769Z,7.27
2024-02-09T19:06:42.213Z,6.37
2024-02-09T19:09:12.040Z,7.07
2024-02-09T19:11:39.095Z,6.43
2024-02-09T19:14:06.033Z,7.53
2024-02-09T19:16:33.698Z,7.40
2024-02-09T19:19:02.857Z,7.00
2024-02-09T19:21:30.806Z,7.60
2024-02-09T19:23:58.576Z,7.00
2024-02-09T19:26:25.472Z,6.90
2024-02-09T19:28:53.174Z,5.90
2024-02-09T19:31:21.123Z,6.07
2024-02-09T19:33:48.811Z,8.50
2024-02-09T19:36:20.695Z,5.97
2024-02-09T19:38:48.542Z,6.00
2024-02-09T19:41:24.550Z,6.37
2024-02-09T19:43:51.704Z,5.83
2024-02-09T19:46:22.213Z,6.30
2024-02-09T19:48:50.776Z,5.83
2024-02-09T19:51:18.469Z,5.30
2024-02-09T19:53:45.618Z,5.70
2024-02-09T19:56:12.621Z,5.30
2024-02-09T19:58:42.392Z,5.00
2024-02-09T20:01:11.368Z,5.83
2024-02-09T20:03:39.683Z,6.60
2024-02-09T20:06:07.035Z,8.43
2024-02-09T20:08:34.041Z,7.20
2024-02-09T20:11:01.370Z,5.47
2024-02-09T20:13:28.467Z,5.87
2024-02-09T20:15:59.775Z,6.57
2024-02-09T20:18:27.038Z,6.27
2024-02-09T20:20:54.878Z,5.63
2024-02-09T20:23:22.125Z,5.60
2024-02-09T20:25:49.120Z,7.33
2024-02-09T20:28:16.456Z,6.70
2024-02-09T20:30:43.382Z,6.97
2024-02-09T20:33:13.078Z,6.40
2024-02-09T20:35:41.027Z,6.00
2024-02-09T20:38:08.330Z,6.53
2024-02-09T20:40:35.801Z,6.73
2024-02-09T20:43:03.298Z,6.73
2024-02-09T20:45:30.979Z,7.50
2024-02-09T20:48:01.558Z,6.00
2024-02-09T20:50:34.035Z,6.17
2024-02-09T20:53:07.904Z,5.73
2024-02-09T20:55:36.769Z,5.97
2024-02-09T20:58:05.069Z,6.13
2024-02-09T21:00:38.883Z,6.23
2024-02-09T21:03:07.546Z,4.90
2024-02-09T21:05:39.246Z,5.80
2024-02-09T21:08:07.326Z,5.00
2024-02-09T21:10:36.225Z,5.93
2024-02-09T21:13:03.238Z,5.63
2024-02-09T21:15:31.990Z,6.90
2024-02-09T21:18:00.392Z,5.50
2024-02-09T21:20:32.672Z,6.40
2024-02-09T21:22:59.722Z,5.80
2024-02-09T21:25:27.009Z,5.50
2024-02-09T21:27:54.224Z,6.70
2024-02-09T21:30:25.711Z,6.63
2024-02-09T21:32:58.195Z,6.97
2024-02-09T21:35:28.971Z,6.93
2024-02-09T21:37:58.414Z,6.80
2024-02-09T21:40:28.933Z,6.40
2024-02-09T21:42:59.554Z,6.53
2024-02-09T21:45:26.404Z,6.83
2024-02-09T21:47:54.364Z,7.20
2024-02-09T21:50:22.039Z,6.63
2024-02-09T21:52:49.163Z,6.80
2024-02-09T21:55:17.338Z,8.10
2024-02-09T21:57:44.197Z,8.73
2024-02-09T22:00:12.342Z,8.90
2024-02-09T22:02:44.053Z,8.10
2024-02-09T22:05:11.413Z,9.67
2024-02-09T22:07:38.630Z,9.00
2024-02-09T22:10:06.057Z,9.30
2024-02-09T22:12:32.920Z,10.97
2024-02-09T22:15:01.179Z,8.73
2024-02-09T22:17:29.362Z,10.60
2024-02-09T22:19:59.719Z,10.80
2024-02-09T22:22:27.662Z,9.97
2024-02-09T22:24:55.734Z,11.63
2024-02-09T22:27:22.673Z,10.90
2024-02-09T22:29:53.169Z,11.07
2024-02-09T22:32:22.254Z,10.67
2024-02-09T22:34:50.707Z,10.73
2024-02-09T22:37:17.916Z,12.20
2024-02-09T22:39:46.386Z,13.10
2024-02-09T22:42:13.670Z,12.27
2024-02-09T22:44:44.098Z,11.50
2024-02-09T22:47:11.596Z,12.13
2024-02-09T22:49:39.084Z,12.97
2024-02-09T22:52:12.873Z,12.60
2024-02-09T22:54:42.727Z,12.00
2024-02-09T22:57:14.912Z,12.70
2024-02-09T22:59:42.390Z,11.93
2024-02-09T23:02:09.493Z,12.13
2024-02-09T23:04:37.228Z,13.03
2024-02-09T23:07:05.878Z,12.60
2024-02-09T23:09:32.905Z,12.37
2024-02-09T23:12:00.202Z,14.17
2024-02-09T23:14:27.420Z,13.50
2024-02-09T23:16:54.941Z,13.43
2024-02-09T23:19:25.899Z,13.90
2024-02-09T23:21:54.962Z,13.97
2024-02-09T23:24:23.192Z,14.00
2024-02-09T23:26:54.654Z,13.90
2024-02-09T23:29:24.392Z,13.43
2024-02-09T23:31:52.225Z,14.47
2024-02-09T23:34:21.128Z,13.17
2024-02-09T23:36:49.585Z,13.13
2024-02-09T23:39:17.243Z,12.93
2024-02-09T23:41:44.010Z,13.57
2024-02-09T23:44:10.941Z,13.73
2024-02-09T23:46:38.242Z,13.77
2024-02-09T23:49:06.150Z,13.37
2024-02-09T23:51:35.212Z,13.67
2024-02-09T23:54:03.086Z,14.37
2024-02-09T23:56:30.937Z,14.53
2024-02-09T23:58:59.345Z,14.10
